createdAt,value
2023-05-28T00:00:17.710Z,236.12
2023-05-28T00:01:17.726Z,237.17
2023-05-28T00:02:17.764Z,236.96
2023-05-28T00:03:17.806Z,235.86
2023-05-28T00:04:17.857Z,239.82
2023-05-28T00:05:17.824Z,240.35
2023-05-28T00:06:17.802Z,242.03
2023-05-28T00:07:17.839Z,238.83
2023-05-28T00:08:17.835Z,240.76
2023-05-28T00:09:17.862Z,243.51
2023-05-28T00:10:17.886Z,243.92
2023-05-28T00:11:17.900Z,242.87
2023-05-28T00:12:17.887Z,244.20
2023-05-28T00:13:17.905Z,247.25
2023-05-28T00:14:17.975Z,246.13
2023-05-28T00:15:17.967Z,246.70
2023-05-28T00:16:18.021Z,247.90
2023-05-28T00:17:17.999Z,246.44
2023-05-28T00:18:18.017Z,248.67
2023-05-28T00:19:18.011Z,249.57
2023-05-28T00:20:18.105Z,247.77
2023-05-28T00:21:18.208Z,249.05
2023-05-28T00:22:18.022Z,249.37
2023-05-28T00:23:18.082Z,249.66
2023-05-28T00:24:18.084Z,249.03
2023-05-28T00:25:18.127Z,248.44
2023-05-28T00:26:18.093Z,248.62
2023-05-28T00:27:18.104Z,246.97
2023-05-28T00:28:18.163Z,247.82
2023-05-28T00:29:18.196Z,248.37
2023-05-28T00:30:18.201Z,244.82
2023-05-28T00:31:18.186Z,244.69
2023-05-28T00:32:18.252Z,244.16
2023-05-28T00:33:18.228Z,243.22
2023-05-28T00:34:18.259Z,245.62
2023-05-28T00:35:18.273Z,243.32
2023-05-28T00:36:18.267Z,243.48
2023-05-28T00:37:18.296Z,241.48
2023-05-28T00:38:18.320Z,242.04
2023-05-28T00:39:18.351Z,242.24
2023-05-28T00:40:18.347Z,243.31
2023-05-28T00:41:18.402Z,242.00
2023-05-28T00:42:18.415Z,240.84
2023-05-28T00:43:18.419Z,239.80
2023-05-28T00:44:18.421Z,239.30
2023-05-28T00:45:18.473Z,239.84
2023-05-28T00:46:18.515Z,239.29
2023-05-28T00:47:18.509Z,237.48
2023-05-28T00:48:18.521Z,236.76
2023-05-28T00:49:18.517Z,238.86
2023-05-28T00:50:18.581Z,238.84
2023-05-28T00:51:18.578Z,238.76
2023-05-28T00:52:18.571Z,238.20
2023-05-28T00:53:18.629Z,239.67
2023-05-28T00:54:18.658Z,240.80
2023-05-28T00:55:18.697Z,239.85
2023-05-28T00:56:18.677Z,238.77
2023-05-28T00:57:18.689Z,239.73
2023-05-28T00:58:18.709Z,239.03
2023-05-28T00:59:18.720Z,237.10
2023-05-28T01:00:18.784Z,237.11
2023-05-28T01:01:18.794Z,236.85
2023-05-28T01:02:18.837Z,237.77
2023-05-28T01:03:18.848Z,237.14
2023-05-28T01:04:18.848Z,238.31
2023-05-28T01:05:18.887Z,236.63
2023-05-28T01:06:18.873Z,235.34
2023-05-28T01:07:18.991Z,233.61
2023-05-28T01:08:18.964Z,233.44
2023-05-28T01:09:18.984Z,234.88
2023-05-28T01:10:18.986Z,233.67
2023-05-28T01:11:19.030Z,234.66
2023-05-28T01:12:19.021Z,232.83
2023-05-28T01:13:19.034Z,233.55
2023-05-28T01:14:19.083Z,234.97
2023-05-28T01:15:19.114Z,236.16
2023-05-28T01:16:19.183Z,235.39
2023-05-28T01:17:19.123Z,236.94
2023-05-28T01:18:19.149Z,235.92
2023-05-28T01:19:19.175Z,237.16
2023-05-28T01:20:19.310Z,236.93
2023-05-28T01:21:19.216Z,237.00
2023-05-28T01:22:19.243Z,234.95
2023-05-28T01:23:19.246Z,237.07
2023-05-28T01:24:19.279Z,236.39
2023-05-28T01:25:19.362Z,237.04
2023-05-28T01:26:19.321Z,236.14
2023-05-28T01:27:19.349Z,238.56
2023-05-28T01:28:19.355Z,237.43
2023-05-28T01:29:19.432Z,236.30
2023-05-28T01:30:19.422Z,236.32
2023-05-28T01:31:19.534Z,236.60
2023-05-28T01:32:19.486Z,237.47
2023-05-28T01:33:19.496Z,237.64
2023-05-28T01:34:19.503Z,239.24
2023-05-28T01:35:19.538Z,239.54
2023-05-28T01:36:19.534Z,239.46
2023-05-28T01:37:19.582Z,240.77
2023-05-28T01:38:19.598Z,240.51
2023-05-28T01:39:19.625Z,242.91
2023-05-28T01:40:19.643Z,239.87
2023-05-28T01:41:19.689Z,239.78
2023-05-28T01:42:19.720Z,239.50
2023-05-28T01:43:19.685Z,238.56
2023-05-28T01:44:19.762Z,235.56
2023-05-28T01:45:19.771Z,233.81
2023-05-28T01:46:19.861Z,234.08
2023-05-28T01:47:19.835Z,234.35
2023-05-28T01:48:19.846Z,233.88
2023-05-28T01:49:19.889Z,233.55
2023-05-28T01:50:19.917Z,233.70
2023-05-28T01:51:19.941Z,233.74
2023-05-28T01:52:19.965Z,235.03
2023-05-28T01:53:19.987Z,231.16
2023-05-28T01:54:20.028Z,230.60
2023-05-28T01:55:20.105Z,232.77
2023-05-28T01:56:20.099Z,232.88
2023-05-28T01:57:20.123Z,232.51
2023-05-28T01:58:20.109Z,231.30
2023-05-28T01:59:20.743Z,231.46
2023-05-28T02:00:20.203Z,229.57
2023-05-28T02:01:20.254Z,229.15
2023-05-28T02:02:20.312Z,229.10
2023-05-28T02:03:20.307Z,228.30
2023-05-28T02:04:20.447Z,229.11
2023-05-28T02:05:20.359Z,227.33
2023-05-28T02:06:20.368Z,229.93
2023-05-28T02:07:20.392Z,230.29
2023-05-28T02:08:20.431Z,231.15
2023-05-28T02:09:20.434Z,230.44
2023-05-28T02:10:20.524Z,230.46
2023-05-28T02:11:20.512Z,231.93
2023-05-28T02:12:20.529Z,232.78
2023-05-28T02:13:20.555Z,231.67
2023-05-28T02:14:20.657Z,234.54
2023-05-28T02:15:20.638Z,231.82
2023-05-28T02:16:20.675Z,231.12
2023-05-28T02:17:20.681Z,231.85
2023-05-28T02:18:20.694Z,230.93
2023-05-28T02:19:20.678Z,231.64
2023-05-28T02:20:20.787Z,230.96
2023-05-28T02:21:20.783Z,231.44
2023-05-28T02:22:20.765Z,231.53
2023-05-28T02:23:20.810Z,230.35
2023-05-28T02:24:20.832Z,231.68
2023-05-28T02:25:20.867Z,229.25
2023-05-28T02:26:20.908Z,229.08
2023-05-28T02:27:20.924Z,226.73
2023-05-28T02:28:20.953Z,228.28
2023-05-28T02:29:20.955Z,229.12
2023-05-28T02:30:20.989Z,226.31
2023-05-28T02:31:21.043Z,227.92
2023-05-28T02:32:21.117Z,226.88
2023-05-28T02:33:21.088Z,225.92
2023-05-28T02:34:21.129Z,226.78
2023-05-28T02:35:21.161Z,227.60
2023-05-28T02:36:21.169Z,226.45
2023-05-28T02:37:21.214Z,225.87
2023-05-28T02:38:21.253Z,225.11
2023-05-28T02:39:21.261Z,227.20
2023-05-28T02:40:21.292Z,228.03
2023-05-28T02:41:21.341Z,225.58
2023-05-28T02:42:21.360Z,224.64
2023-05-28T02:43:21.413Z,226.29
2023-05-28T02:44:21.444Z,225.63
2023-05-28T02:45:21.494Z,224.95
2023-05-28T02:46:21.486Z,226.11
2023-05-28T02:47:21.535Z,226.84
2023-05-28T02:48:21.556Z,224.33
2023-05-28T02:49:21.564Z,225.27
2023-05-28T02:50:21.593Z,225.79
2023-05-28T02:51:21.641Z,225.51
2023-05-28T02:52:21.679Z,227.19
2023-05-28T02:53:21.731Z,226.40
2023-05-28T02:54:21.726Z,224.46
2023-05-28T02:55:21.779Z,225.47
2023-05-28T02:56:21.790Z,225.14
2023-05-28T02:57:23.006Z,225.25
2023-05-28T02:58:21.847Z,226.12
2023-05-28T02:59:21.910Z,227.96
2023-05-28T03:00:21.959Z,227.48
2023-05-28T03:01:22.056Z,227.67
2023-05-28T03:02:22.152Z,228.50
2023-05-28T03:03:22.142Z,227.99
2023-05-28T03:04:22.060Z,227.93
2023-05-28T03:05:22.110Z,226.86
2023-05-28T03:06:22.137Z,227.81
2023-05-28T03:07:22.175Z,226.46
2023-05-28T03:08:22.175Z,227.04
2023-05-28T03:09:22.222Z,226.53
2023-05-28T03:10:22.275Z,228.25
2023-05-28T03:11:22.281Z,228.30
2023-05-28T03:12:22.284Z,228.02
2023-05-28T03:13:22.345Z,229.71
2023-05-28T03:14:22.355Z,229.80
2023-05-28T03:15:22.400Z,230.76
2023-05-28T03:16:22.423Z,230.92
2023-05-28T03:17:22.443Z,232.57
2023-05-28T03:18:22.421Z,233.52
2023-05-28T03:19:22.493Z,233.87
2023-05-28T03:20:22.575Z,234.37
2023-05-28T03:21:22.556Z,235.48
2023-05-28T03:22:22.551Z,236.09
2023-05-28T03:23:22.606Z,236.83
2023-05-28T03:24:22.604Z,236.76
2023-05-28T03:25:22.629Z,236.59
2023-05-28T03:26:22.698Z,239.81
2023-05-28T03:27:22.696Z,240.25
2023-05-28T03:28:22.733Z,238.79
2023-05-28T03:29:22.753Z,241.11
2023-05-28T03:30:22.817Z,239.17
2023-05-28T03:31:22.906Z,238.82
2023-05-28T03:32:22.874Z,240.83
2023-05-28T03:33:22.885Z,240.09
2023-05-28T03:34:22.935Z,240.87
2023-05-28T03:35:22.988Z,240.08
2023-05-28T03:36:22.986Z,238.76
2023-05-28T03:37:23.031Z,239.95
2023-05-28T03:38:23.049Z,241.24
2023-05-28T03:39:23.087Z,239.38
2023-05-28T03:40:23.142Z,242.88
2023-05-28T03:41:23.157Z,242.70
2023-05-28T03:42:23.208Z,243.97
2023-05-28T03:43:23.232Z,245.43
2023-05-28T03:44:23.281Z,245.63
2023-05-28T03:45:23.283Z,246.89
2023-05-28T03:46:23.433Z,245.83
2023-05-28T03:47:23.417Z,249.36
2023-05-28T03:48:23.421Z,248.39
2023-05-28T03:49:23.452Z,247.28
2023-05-28T03:50:23.501Z,248.17
2023-05-28T03:51:23.538Z,247.18
2023-05-28T03:52:23.561Z,246.43
2023-05-28T03:53:23.579Z,248.47
2023-05-28T03:54:23.627Z,248.56
2023-05-28T03:55:23.676Z,248.02
2023-05-28T03:56:23.687Z,247.10
2023-05-28T03:57:23.677Z,247.09
2023-05-28T03:58:23.735Z,246.30
2023-05-28T03:59:23.801Z,247.14
2023-05-28T04:00:23.812Z,246.77
2023-05-28T04:01:23.856Z,245.25
2023-05-28T04:02:23.859Z,247.86
2023-05-28T04:03:24.031Z,248.82
2023-05-28T04:04:25.158Z,244.49
2023-05-28T04:05:23.963Z,245.94
2023-05-28T04:06:24.010Z,245.76
2023-05-28T04:07:24.029Z,246.40
2023-05-28T04:08:24.054Z,248.11
2023-05-28T04:09:24.087Z,247.29
2023-05-28T04:10:24.101Z,247.45
2023-05-28T04:11:24.052Z,247.67
2023-05-28T04:12:24.100Z,248.39
2023-05-28T04:13:24.053Z,248.11
2023-05-28T04:14:24.039Z,251.52
2023-05-28T04:15:24.044Z,247.83
2023-05-28T04:16:24.076Z,247.11
2023-05-28T04:17:24.045Z,248.46
2023-05-28T04:18:24.036Z,248.57
2023-05-28T04:19:24.051Z,246.14
2023-05-28T04:20:24.091Z,248.39
2023-05-28T04:21:24.016Z,249.59
2023-05-28T04:22:23.996Z,249.70
2023-05-28T04:23:24.027Z,248.83
2023-05-28T04:24:23.975Z,247.21
2023-05-28T04:25:23.962Z,248.14
2023-05-28T04:26:23.995Z,246.64
2023-05-28T04:27:24.011Z,247.70
2023-05-28T04:28:24.060Z,246.36
2023-05-28T04:29:24.085Z,245.12
2023-05-28T04:30:24.142Z,248.19
2023-05-28T04:31:24.200Z,245.93
2023-05-28T04:32:24.210Z,248.58
2023-05-28T04:33:24.221Z,245.47
2023-05-28T04:34:24.255Z,245.61
2023-05-28T04:35:24.296Z,249.47
2023-05-28T04:36:24.349Z,245.54
2023-05-28T04:37:24.382Z,246.78
2023-05-28T04:38:24.382Z,246.64
2023-05-28T04:39:24.424Z,249.08
2023-05-28T04:40:24.463Z,249.88
2023-05-28T04:41:24.474Z,247.65
2023-05-28T04:42:24.509Z,250.00
2023-05-28T04:43:24.538Z,250.00
2023-05-28T04:44:24.558Z,249.41
2023-05-28T04:45:24.613Z,248.11
2023-05-28T04:46:24.688Z,248.23
2023-05-28T04:47:24.718Z,246.65
2023-05-28T04:48:24.689Z,247.49
2023-05-28T04:49:24.709Z,247.76
2023-05-28T04:50:24.787Z,247.60
2023-05-28T04:51:24.828Z,246.56
2023-05-28T04:52:24.867Z,247.07
2023-05-28T04:53:24.882Z,246.08
2023-05-28T04:54:24.914Z,246.91
2023-05-28T04:55:24.944Z,246.87
2023-05-28T04:56:24.965Z,247.62
2023-05-28T04:57:25.033Z,245.80
2023-05-28T04:58:25.027Z,245.93
2023-05-28T04:59:25.058Z,243.73
2023-05-28T05:00:25.141Z,245.59
2023-05-28T05:01:25.177Z,242.30
2023-05-28T05:02:25.166Z,244.61
2023-05-28T05:03:25.209Z,244.78
2023-05-28T05:04:25.250Z,246.25
2023-05-28T05:05:25.242Z,244.34
2023-05-28T05:06:25.301Z,245.54
2023-05-28T05:07:25.297Z,246.57
2023-05-28T05:08:25.319Z,247.96
2023-05-28T05:09:25.392Z,247.51
2023-05-28T05:10:25.382Z,247.72
2023-05-28T05:11:25.411Z,248.92
2023-05-28T05:12:25.441Z,249.33
2023-05-28T05:13:25.495Z,247.03
2023-05-28T05:14:25.501Z,246.92
2023-05-28T05:15:25.540Z,248.76
2023-05-28T05:16:25.559Z,248.15
2023-05-28T05:17:25.530Z,248.83
2023-05-28T05:18:25.618Z,247.75
2023-05-28T05:19:25.598Z,249.19
2023-05-28T05:20:25.696Z,248.13
2023-05-28T05:21:25.638Z,248.07
2023-05-28T05:22:25.666Z,248.15
2023-05-28T05:23:25.692Z,248.42
2023-05-28T05:24:25.769Z,248.53
2023-05-28T05:25:25.785Z,248.73
2023-05-28T05:26:25.798Z,246.97
2023-05-28T05:27:25.808Z,247.58
2023-05-28T05:28:25.828Z,246.11
2023-05-28T05:29:25.832Z,247.94
2023-05-28T05:30:25.861Z,246.00
2023-05-28T05:31:25.994Z,247.88
2023-05-28T05:32:26.049Z,246.22
2023-05-28T05:33:25.938Z,247.50
2023-05-28T05:34:25.962Z,247.37
2023-05-28T05:35:26.025Z,248.32
2023-05-28T05:36:26.022Z,247.83
2023-05-28T05:37:26.047Z,249.59
2023-05-28T05:38:26.015Z,248.38
2023-05-28T05:39:26.075Z,247.73
2023-05-28T05:40:26.099Z,248.06
2023-05-28T05:41:26.112Z,248.28
2023-05-28T05:42:26.109Z,248.10
2023-05-28T05:43:26.160Z,248.65
2023-05-28T05:44:26.158Z,248.28
2023-05-28T05:45:26.217Z,246.76
2023-05-28T05:46:26.233Z,249.71
2023-05-28T05:47:26.260Z,248.90
2023-05-28T05:48:26.225Z,247.06
2023-05-28T05:49:26.223Z,246.23
2023-05-28T05:50:26.258Z,247.50
2023-05-28T05:51:26.323Z,245.16
2023-05-28T05:52:26.292Z,243.17
2023-05-28T05:53:26.413Z,243.61
2023-05-28T05:54:26.330Z,241.71
2023-05-28T05:55:26.334Z,240.37
2023-05-28T05:56:26.372Z,239.07
2023-05-28T05:57:26.425Z,239.32
2023-05-28T05:58:26.421Z,238.31
2023-05-28T05:59:26.430Z,236.40
2023-05-28T06:00:26.465Z,236.38
2023-05-28T06:01:26.459Z,234.07
2023-05-28T06:02:26.563Z,233.64
2023-05-28T06:03:26.544Z,232.19
2023-05-28T06:04:26.602Z,228.99
2023-05-28T06:05:26.553Z,228.38
2023-05-28T06:06:26.602Z,229.22
2023-05-28T06:07:26.596Z,227.85
2023-05-28T06:08:26.611Z,226.29
2023-05-28T06:09:28.776Z,226.64
2023-05-28T06:10:26.656Z,226.95
2023-05-28T06:11:26.690Z,226.87
2023-05-28T06:12:26.630Z,226.47
2023-05-28T06:13:26.597Z,226.28
2023-05-28T06:14:26.608Z,227.13
2023-05-28T06:15:26.614Z,226.46
2023-05-28T06:16:26.675Z,225.38
2023-05-28T06:17:26.622Z,225.58
2023-05-28T06:18:26.573Z,226.50
2023-05-28T06:19:26.592Z,226.51
2023-05-28T06:20:26.591Z,227.52
2023-05-28T06:21:26.553Z,228.36
2023-05-28T06:22:26.542Z,228.33
2023-05-28T06:23:26.571Z,227.10
2023-05-28T06:24:26.539Z,227.60
2023-05-28T06:25:26.511Z,227.03
2023-05-28T06:26:26.531Z,227.74
2023-05-28T06:27:26.498Z,229.11
2023-05-28T06:28:26.501Z,229.66
2023-05-28T06:29:26.514Z,229.66
2023-05-28T06:30:26.478Z,231.97
2023-05-28T06:31:26.512Z,234.56
2023-05-28T06:32:26.567Z,234.81
2023-05-28T06:33:26.470Z,235.22
2023-05-28T06:34:26.466Z,239.25
2023-05-28T06:35:26.460Z,241.08
2023-05-28T06:36:26.448Z,242.65
2023-05-28T06:37:26.432Z,244.39
2023-05-28T06:38:26.440Z,245.70
2023-05-28T06:39:26.432Z,245.74
2023-05-28T06:40:26.406Z,247.81
2023-05-28T06:41:26.427Z,247.78
2023-05-28T06:42:26.404Z,248.72
2023-05-28T06:43:26.395Z,247.86
2023-05-28T06:44:26.404Z,246.75
2023-05-28T06:45:26.385Z,247.62
2023-05-28T06:46:26.439Z,249.18
2023-05-28T06:47:26.434Z,248.43
2023-05-28T06:48:26.373Z,248.02
2023-05-28T06:49:26.373Z,248.72
2023-05-28T06:50:26.412Z,248.10
2023-05-28T06:51:26.351Z,246.40
2023-05-28T06:52:26.330Z,244.23
2023-05-28T06:53:26.328Z,244.12
2023-05-28T06:54:26.304Z,243.90
2023-05-28T06:55:26.345Z,243.31
2023-05-28T06:56:26.331Z,241.57
2023-05-28T06:57:26.327Z,240.61
2023-05-28T06:58:26.281Z,239.45
2023-05-28T06:59:26.271Z,239.96
2023-05-28T07:00:26.351Z,238.00
2023-05-28T07:01:26.353Z,240.34
2023-05-28T07:02:26.347Z,238.57
2023-05-28T07:03:26.297Z,236.30
2023-05-28T07:04:26.307Z,238.86
2023-05-28T07:05:26.324Z,237.62
2023-05-28T07:06:26.242Z,238.80
2023-05-28T07:07:26.223Z,239.47
2023-05-28T07:08:26.231Z,239.54
2023-05-28T07:09:26.236Z,238.03
2023-05-28T07:10:26.197Z,240.34
2023-05-28T07:11:26.216Z,240.61
2023-05-28T07:12:26.223Z,241.09
2023-05-28T07:13:26.173Z,242.23
2023-05-28T07:14:26.170Z,241.06
2023-05-28T07:15:26.160Z,241.83
2023-05-28T07:16:26.247Z,238.93
2023-05-28T07:17:26.219Z,239.37
2023-05-28T07:18:26.214Z,239.26
2023-05-28T07:19:26.219Z,242.55
2023-05-28T07:20:26.323Z,240.11
2023-05-28T07:21:26.283Z,241.25
2023-05-28T07:22:26.328Z,241.91
2023-05-28T07:23:26.367Z,239.32
2023-05-28T07:24:26.365Z,241.95
2023-05-28T07:25:26.433Z,239.89
2023-05-28T07:26:26.426Z,239.18
2023-05-28T07:27:26.443Z,241.01
2023-05-28T07:28:26.480Z,239.17
2023-05-28T07:29:26.516Z,237.81
2023-05-28T07:30:26.570Z,236.04
2023-05-28T07:31:26.597Z,235.04
2023-05-28T07:32:26.634Z,237.92
2023-05-28T07:33:26.623Z,233.80
2023-05-28T07:34:26.662Z,230.78
2023-05-28T07:35:26.707Z,232.18
2023-05-28T07:36:26.716Z,232.66
2023-05-28T07:37:26.722Z,230.51
2023-05-28T07:38:26.803Z,229.34
2023-05-28T07:39:26.822Z,229.86
2023-05-28T07:40:26.826Z,228.21
2023-05-28T07:41:26.824Z,227.63
2023-05-28T07:42:26.873Z,227.16
2023-05-28T07:43:26.965Z,224.54
2023-05-28T07:44:26.962Z,225.05
2023-05-28T07:45:27.021Z,226.80
2023-05-28T07:46:27.074Z,226.16
2023-05-28T07:47:27.102Z,224.11
2023-05-28T07:48:27.066Z,225.68
2023-05-28T07:49:27.108Z,228.03
2023-05-28T07:50:27.145Z,223.96
2023-05-28T07:51:27.191Z,225.66
2023-05-28T07:52:27.220Z,225.15
2023-05-28T07:53:27.213Z,226.37
2023-05-28T07:54:27.292Z,224.44
2023-05-28T07:55:27.311Z,225.11
2023-05-28T07:56:27.337Z,225.20
2023-05-28T07:57:27.378Z,226.56
2023-05-28T07:58:27.371Z,226.59
2023-05-28T07:59:27.428Z,227.72
2023-05-28T08:00:27.494Z,228.72
2023-05-28T08:01:27.448Z,229.33
2023-05-28T08:02:27.611Z,230.23
2023-05-28T08:03:27.803Z,231.94
2023-05-28T08:04:27.616Z,228.44
2023-05-28T08:05:27.616Z,230.83
2023-05-28T08:06:27.631Z,231.95
2023-05-28T08:07:27.635Z,231.03
2023-05-28T08:08:27.699Z,231.39
2023-05-28T08:09:27.741Z,233.60
2023-05-28T08:10:27.780Z,233.32
2023-05-28T08:11:27.768Z,233.05
2023-05-28T08:12:27.797Z,234.76
2023-05-28T08:13:27.830Z,232.82
2023-05-28T08:14:27.910Z,233.13
2023-05-28T08:15:28.029Z,233.27
2023-05-28T08:16:27.974Z,236.70
2023-05-28T08:17:27.934Z,234.42
2023-05-28T08:18:27.973Z,233.30
2023-05-28T08:19:27.967Z,233.61
2023-05-28T08:20:28.078Z,233.03
2023-05-28T08:21:28.048Z,230.60
2023-05-28T08:22:28.109Z,229.69
2023-05-28T08:23:28.121Z,228.23
2023-05-28T08:24:28.182Z,227.90
2023-05-28T08:25:28.190Z,228.06
2023-05-28T08:26:28.188Z,228.84
2023-05-28T08:27:28.230Z,228.76
2023-05-28T08:28:28.305Z,226.79
2023-05-28T08:29:28.265Z,227.86
2023-05-28T08:30:28.317Z,228.63
2023-05-28T08:31:28.352Z,228.36
2023-05-28T08:32:28.395Z,230.23
2023-05-28T08:33:28.366Z,228.58
2023-05-28T08:35:28.441Z,229.09
2023-05-28T08:36:28.461Z,227.80
2023-05-28T08:37:28.506Z,225.60
2023-05-28T08:38:29.097Z,223.70
2023-05-28T08:39:28.519Z,224.62
2023-05-28T08:40:28.578Z,224.15
2023-05-28T08:41:28.600Z,221.19
2023-05-28T08:42:28.667Z,223.21
2023-05-28T08:43:28.620Z,221.47
2023-05-28T08:44:28.659Z,223.53
2023-05-28T08:45:28.681Z,221.96
2023-05-28T08:46:28.740Z,220.32
2023-05-28T08:47:28.686Z,224.38
2023-05-28T08:48:28.892Z,220.17
2023-05-28T08:49:28.757Z,226.02
2023-05-28T08:50:28.760Z,225.59
2023-05-28T08:51:28.808Z,223.97
2023-05-28T08:52:28.838Z,224.58
2023-05-28T08:53:29.410Z,224.44
2023-05-28T08:54:28.876Z,224.69
2023-05-28T08:55:28.937Z,224.88
2023-05-28T08:56:28.940Z,223.75
2023-05-28T08:57:28.957Z,220.96
2023-05-28T08:58:28.995Z,218.91
2023-05-28T08:59:29.033Z,219.20
2023-05-28T09:00:29.037Z,218.80
2023-05-28T09:01:29.201Z,218.43
2023-05-28T09:02:29.115Z,216.37
2023-05-28T09:03:29.236Z,217.09
2023-05-28T09:04:30.061Z,217.59
2023-05-28T09:05:29.185Z,219.45
2023-05-28T09:06:29.214Z,217.69
2023-05-28T09:07:29.243Z,219.37
2023-05-28T09:08:29.299Z,218.47
2023-05-28T09:09:29.249Z,217.67
2023-05-28T09:10:29.280Z,217.29
2023-05-28T09:11:29.303Z,220.08
2023-05-28T09:12:29.380Z,220.93
2023-05-28T09:13:29.363Z,219.89
2023-05-28T09:14:29.377Z,221.93
2023-05-28T09:15:29.453Z,221.62
2023-05-28T09:16:29.520Z,221.74
2023-05-28T09:17:30.196Z,221.35
2023-05-28T09:18:29.510Z,219.79
2023-05-28T09:19:29.477Z,221.63
2023-05-28T09:20:29.555Z,220.78
2023-05-28T09:21:29.517Z,220.34
2023-05-28T09:22:29.576Z,224.11
2023-05-28T09:23:29.637Z,221.99
2023-05-28T09:24:29.603Z,219.46
2023-05-28T09:25:29.691Z,218.38
2023-05-28T09:26:29.570Z,220.44
2023-05-28T09:27:29.584Z,220.92
2023-05-28T09:28:29.631Z,222.59
2023-05-28T09:29:29.648Z,224.16
2023-05-28T09:30:29.726Z,225.53
2023-05-28T09:31:29.726Z,226.26
2023-05-28T09:32:29.750Z,226.50
2023-05-28T09:33:29.701Z,224.01
2023-05-28T09:34:29.765Z,224.68
2023-05-28T09:35:29.746Z,224.77
2023-05-28T09:36:29.754Z,224.27
2023-05-28T09:37:29.749Z,223.44
2023-05-28T09:38:29.803Z,222.05
2023-05-28T09:39:29.764Z,221.92
2023-05-28T09:40:29.816Z,219.60
2023-05-28T09:41:29.828Z,220.62
2023-05-28T09:42:29.839Z,217.23
2023-05-28T09:43:29.830Z,217.21
2023-05-28T09:44:29.834Z,215.00
2023-05-28T09:45:29.901Z,215.27
2023-05-28T09:46:29.913Z,214.69
2023-05-28T09:47:29.910Z,213.51
2023-05-28T09:48:29.919Z,212.57
2023-05-28T09:49:29.908Z,213.58
2023-05-28T09:50:29.929Z,214.35
2023-05-28T09:51:29.946Z,212.89
2023-05-28T09:52:29.942Z,211.45
2023-05-28T09:53:29.937Z,211.62
2023-05-28T09:54:29.970Z,208.77
2023-05-28T09:55:29.985Z,208.02
2023-05-28T09:56:30.033Z,207.29
2023-05-28T09:57:29.967Z,205.42
2023-05-28T09:58:29.995Z,204.24
2023-05-28T09:59:30.019Z,201.02
2023-05-28T10:00:30.070Z,200.57
2023-05-28T10:01:30.045Z,195.78
2023-05-28T10:02:30.139Z,194.98
2023-05-28T10:03:30.258Z,196.96
2023-05-28T10:04:30.092Z,193.05
2023-05-28T10:05:30.058Z,192.83
2023-05-28T10:06:30.103Z,197.20
2023-05-28T10:07:30.104Z,198.64
2023-05-28T10:08:30.126Z,198.23
2023-05-28T10:09:30.087Z,196.45
2023-05-28T10:10:30.172Z,197.62
2023-05-28T10:11:30.153Z,197.54
2023-05-28T10:12:30.161Z,194.83
2023-05-28T10:13:30.144Z,198.76
2023-05-28T10:14:30.168Z,214.34
2023-05-28T10:15:30.204Z,218.70
2023-05-28T10:16:30.289Z,221.18
2023-05-28T10:17:30.215Z,236.52
2023-05-28T10:18:30.194Z,243.22
2023-05-28T10:19:30.211Z,238.77
2023-05-28T10:20:30.277Z,231.22
2023-05-28T10:21:30.172Z,229.00
2023-05-28T10:22:30.180Z,240.67
2023-05-28T10:23:30.193Z,243.98
2023-05-28T10:24:30.172Z,244.29
2023-05-28T10:25:30.145Z,245.32
2023-05-28T10:26:30.167Z,247.57
2023-05-28T10:27:30.218Z,246.83
2023-05-28T10:28:30.257Z,246.30
2023-05-28T10:29:30.237Z,245.93
2023-05-28T10:30:30.259Z,246.98
2023-05-28T10:31:30.272Z,247.53
2023-05-28T10:32:30.334Z,246.92
2023-05-28T10:33:30.374Z,246.14
2023-05-28T10:34:30.349Z,245.64
2023-05-28T10:35:30.435Z,245.71
2023-05-28T10:36:30.514Z,244.93
2023-05-28T10:37:30.560Z,240.59
2023-05-28T10:38:30.571Z,239.83
2023-05-28T10:39:30.639Z,241.49
2023-05-28T10:40:30.685Z,245.79
2023-05-28T10:41:30.752Z,243.14
2023-05-28T10:42:30.822Z,243.10
2023-05-28T10:43:30.826Z,241.78
2023-05-28T10:44:30.910Z,242.54
2023-05-28T10:45:30.960Z,243.28
2023-05-28T10:46:31.084Z,243.14
2023-05-28T10:47:31.088Z,245.18
2023-05-28T10:48:31.134Z,245.01
2023-05-28T10:49:31.165Z,245.73
2023-05-28T10:50:31.179Z,244.52
2023-05-28T10:51:31.272Z,243.27
2023-05-28T10:52:31.339Z,242.89
2023-05-28T10:53:31.351Z,241.47
2023-05-28T10:54:31.531Z,244.47
2023-05-28T10:55:31.540Z,239.49
2023-05-28T10:56:31.560Z,236.53
2023-05-28T10:57:31.603Z,240.61
2023-05-28T10:58:31.683Z,240.20
2023-05-28T10:59:32.521Z,239.81
2023-05-28T11:00:31.808Z,242.41
2023-05-28T11:01:31.884Z,243.31
2023-05-28T11:02:31.947Z,242.92
2023-05-28T11:03:32.099Z,234.75
2023-05-28T11:04:32.040Z,214.39
2023-05-28T11:05:32.067Z,224.09
2023-05-28T11:06:32.150Z,231.85
2023-05-28T11:07:32.222Z,235.13
2023-05-28T11:08:32.287Z,235.61
2023-05-28T11:09:32.325Z,237.89
2023-05-28T11:10:32.631Z,238.94
2023-05-28T11:11:32.425Z,240.58
2023-05-28T11:12:32.483Z,238.27
2023-05-28T11:13:32.563Z,239.74
2023-05-28T11:14:32.631Z,239.41
2023-05-28T11:15:32.736Z,237.04
2023-05-28T11:16:32.813Z,222.22
2023-05-28T11:17:32.836Z,202.90
2023-05-28T11:18:32.898Z,219.24
2023-05-28T11:19:32.965Z,224.85
2023-05-28T11:20:33.213Z,228.27
2023-05-28T11:21:33.059Z,227.48
2023-05-28T11:22:33.135Z,233.10
2023-05-28T11:23:33.174Z,234.74
2023-05-28T11:24:33.250Z,235.00
2023-05-28T11:25:33.382Z,234.60
2023-05-28T11:26:33.439Z,235.12
2023-05-28T11:27:33.423Z,236.12
2023-05-28T11:28:33.476Z,235.74
2023-05-28T11:29:33.551Z,236.33
2023-05-28T11:30:33.614Z,233.86
2023-05-28T11:31:33.689Z,234.65
2023-05-28T11:32:33.911Z,235.97
2023-05-28T11:33:33.799Z,235.46
2023-05-28T11:34:33.881Z,235.01
2023-05-28T11:35:33.929Z,234.52
2023-05-28T11:36:33.993Z,232.76
2023-05-28T11:37:34.017Z,232.97
2023-05-28T11:38:34.034Z,233.97
2023-05-28T11:39:34.132Z,233.25
2023-05-28T11:40:34.152Z,232.04
2023-05-28T11:41:34.306Z,207.17
2023-05-28T11:42:34.346Z,212.92
2023-05-28T11:43:34.358Z,221.76
2023-05-28T11:44:34.430Z,224.73
2023-05-28T11:45:34.498Z,227.15
2023-05-28T11:46:34.640Z,198.23
2023-05-28T11:47:34.665Z,205.67
2023-05-28T11:48:34.651Z,197.43
2023-05-28T11:49:34.769Z,209.72
2023-05-28T11:50:34.799Z,219.93
2023-05-28T11:51:34.842Z,226.01
2023-05-28T11:52:34.904Z,228.94
2023-05-28T11:53:34.995Z,216.80
2023-05-28T11:54:35.020Z,221.30
2023-05-28T11:55:35.059Z,214.84
2023-05-28T11:56:35.168Z,217.82
2023-05-28T11:57:35.236Z,223.62
2023-05-28T11:58:35.243Z,224.61
2023-05-28T11:59:35.325Z,226.91
2023-05-28T12:00:35.361Z,214.27
2023-05-28T12:01:35.470Z,220.65
2023-05-28T12:02:35.607Z,225.12
2023-05-28T12:03:35.685Z,227.13
2023-05-28T12:04:35.577Z,227.69
2023-05-28T12:05:35.711Z,226.41
2023-05-28T12:06:40.287Z,194.24
2023-05-28T12:07:36.687Z,194.65
2023-05-28T12:08:36.228Z,197.13
2023-05-28T12:09:35.655Z,202.68
2023-05-28T12:10:35.676Z,210.63
2023-05-28T12:11:35.629Z,222.88
2023-05-28T12:12:35.641Z,224.72
2023-05-28T12:13:35.660Z,223.59
2023-05-28T12:14:35.640Z,223.49
2023-05-28T12:15:35.681Z,211.60
2023-05-28T12:16:35.853Z,210.15
2023-05-28T12:17:35.880Z,216.91
2023-05-28T12:18:35.903Z,217.59
2023-05-28T12:19:35.935Z,218.67
2023-05-28T12:20:36.125Z,215.75
2023-05-28T12:21:36.036Z,180.07
2023-05-28T12:22:36.084Z,195.74
2023-05-28T12:23:36.169Z,204.61
2023-05-28T12:24:36.210Z,209.92
2023-05-28T12:25:36.297Z,212.16
2023-05-28T12:26:36.336Z,214.40
2023-05-28T12:27:36.350Z,217.33
2023-05-28T12:28:36.417Z,216.15
2023-05-28T12:29:36.442Z,214.13